createdAt,value
2022-10-19T00:01:16.436Z,15.10
2022-10-19T00:06:25.554Z,15.17
2022-10-19T00:08:54.622Z,9.90
2022-10-19T00:11:23.654Z,14.47
2022-10-19T00:13:52.006Z,12.90
2022-10-19T00:16:21.197Z,19.07
2022-10-19T00:18:50.943Z,15.47
2022-10-19T00:21:20.457Z,13.03
2022-10-19T00:23:49.320Z,13.53
2022-10-19T00:26:17.574Z,10.47
2022-10-19T00:28:45.937Z,17.13
2022-10-19T00:31:17.031Z,12.00
2022-10-19T00:33:46.815Z,16.67
2022-10-19T00:36:22.364Z,12.13
2022-10-19T00:38:50.739Z,13.40
2022-10-19T00:41:19.895Z,15.67
2022-10-19T00:43:56.981Z,12.00
2022-10-19T00:46:26.041Z,13.03
2022-10-19T00:49:01.091Z,20.67
2022-10-19T00:51:34.458Z,12.60
2022-10-19T00:54:04.660Z,15.03
2022-10-19T00:56:33.565Z,14.33
2022-10-19T00:59:04.684Z,14.10
2022-10-19T01:01:34.478Z,16.73
2022-10-19T01:04:04.510Z,12.67
2022-10-19T01:06:34.936Z,19.40
2022-10-19T01:09:02.970Z,16.73
2022-10-19T01:11:41.863Z,15.23
2022-10-19T01:14:24.953Z,20.23
2022-10-19T01:17:02.617Z,14.93
2022-10-19T01:19:58.373Z,11.37
2022-10-19T01:22:44.772Z,19.33
2022-10-19T01:25:23.834Z,19.13
2022-10-19T01:28:07.067Z,25.67
2022-10-19T01:30:48.786Z,10.93
2022-10-19T01:33:29.036Z,14.77
2022-10-19T01:36:05.947Z,15.20
2022-10-19T01:38:38.530Z,11.00
2022-10-19T01:41:15.770Z,14.77
2022-10-19T01:43:51.621Z,10.70
2022-10-19T01:46:28.330Z,15.00
2022-10-19T01:49:02.696Z,16.20
2022-10-19T01:51:35.400Z,17.57
2022-10-19T01:54:07.823Z,18.50
2022-10-19T01:56:37.448Z,19.43
2022-10-19T01:59:09.634Z,15.40
2022-10-19T02:01:42.450Z,15.87
2022-10-19T02:04:11.965Z,13.90
2022-10-19T02:06:40.398Z,14.40
2022-10-19T02:09:08.676Z,24.73
2022-10-19T02:11:38.967Z,19.80
2022-10-19T02:14:14.076Z,26.20
2022-10-19T02:16:48.652Z,12.93
2022-10-19T02:19:17.572Z,17.00
2022-10-19T02:21:45.914Z,14.43
2022-10-19T02:24:13.950Z,13.20
2022-10-19T02:26:42.382Z,11.10
2022-10-19T02:29:12.846Z,14.13
2022-10-19T02:32:02.949Z,15.73
2022-10-19T02:34:31.546Z,15.00
2022-10-19T02:36:59.885Z,12.27
2022-10-19T02:39:28.060Z,16.27
2022-10-19T02:42:02.343Z,12.93
2022-10-19T02:44:34.881Z,14.90
2022-10-19T02:47:08.906Z,16.90
2022-10-19T02:49:38.676Z,20.37
2022-10-19T02:52:09.108Z,17.20
2022-10-19T02:54:37.615Z,18.90
2022-10-19T02:57:15.414Z,15.83
2022-10-19T02:59:43.424Z,16.63
2022-10-19T03:02:13.019Z,14.90
2022-10-19T03:04:41.590Z,13.30
2022-10-19T03:07:10.498Z,15.40
2022-10-19T03:09:38.651Z,16.40
2022-10-19T03:12:06.886Z,13.90
2022-10-19T03:14:35.025Z,18.67
2022-10-19T03:17:03.315Z,13.70
2022-10-19T03:19:33.493Z,15.63
2022-10-19T03:22:01.573Z,13.33
2022-10-19T03:24:31.012Z,15.90
2022-10-19T03:27:02.327Z,16.13
2022-10-19T03:29:30.416Z,15.33
2022-10-19T03:31:58.477Z,19.47
2022-10-19T03:34:26.511Z,14.87
2022-10-19T03:36:56.583Z,16.20
2022-10-19T03:39:24.648Z,13.90
2022-10-19T03:41:52.755Z,16.67
2022-10-19T03:44:20.745Z,14.73
2022-10-19T03:46:48.772Z,18.10
2022-10-19T03:49:43.561Z,13.70
2022-10-19T03:52:13.002Z,16.30
2022-10-19T03:54:41.158Z,12.90
2022-10-19T03:57:09.210Z,14.57
2022-10-19T03:59:37.347Z,16.87
2022-10-19T04:02:05.384Z,14.53
2022-10-19T04:04:33.422Z,11.67
2022-10-19T04:07:01.608Z,14.50
2022-10-19T04:09:31.057Z,16.67
2022-10-19T04:11:59.129Z,11.83
2022-10-19T04:14:33.241Z,12.73
2022-10-19T04:17:07.340Z,20.07
2022-10-19T04:19:35.447Z,15.47
2022-10-19T04:22:03.590Z,14.57
2022-10-19T04:24:32.937Z,19.10
2022-10-19T04:27:00.946Z,14.80
2022-10-19T04:29:30.095Z,15.13
2022-10-19T04:32:00.118Z,10.80
2022-10-19T04:34:28.580Z,13.30
2022-10-19T04:36:59.189Z,13.17
2022-10-19T04:39:27.271Z,13.13
2022-10-19T04:41:56.633Z,20.97
2022-10-19T04:44:24.783Z,14.93
2022-10-19T04:46:52.831Z,17.50
2022-10-19T04:49:21.172Z,14.80
2022-10-19T04:51:49.234Z,16.07
2022-10-19T04:54:17.282Z,15.10
2022-10-19T04:56:45.319Z,17.37
2022-10-19T04:59:14.746Z,29.17
2022-10-19T05:01:46.559Z,14.63
2022-10-19T05:04:15.425Z,21.23
2022-10-19T05:06:43.508Z,14.60
2022-10-19T05:09:11.573Z,16.70
2022-10-19T05:11:39.625Z,17.07
2022-10-19T05:14:08.000Z,15.33
2022-10-19T05:16:37.378Z,14.77
2022-10-19T05:19:05.497Z,13.20
2022-10-19T05:21:33.502Z,12.13
2022-10-19T05:24:01.555Z,18.00
2022-10-19T05:26:30.202Z,12.60
2022-10-19T05:29:01.629Z,13.80
2022-10-19T05:31:32.013Z,20.23
2022-10-19T05:34:03.873Z,12.00
2022-10-19T05:36:35.108Z,21.17
2022-10-19T05:39:05.461Z,13.80
2022-10-19T05:41:33.567Z,11.57
2022-10-19T05:44:03.093Z,16.63
2022-10-19T05:46:32.673Z,12.17
2022-10-19T05:49:02.068Z,11.87
2022-10-19T05:51:30.349Z,12.23
2022-10-19T05:53:58.647Z,11.07
2022-10-19T05:56:28.774Z,10.43
2022-10-19T05:58:57.486Z,13.37
2022-10-19T06:01:26.109Z,10.60
2022-10-19T06:03:55.533Z,9.90
2022-10-19T06:06:26.176Z,20.23
2022-10-19T06:08:56.316Z,12.33
2022-10-19T06:11:26.161Z,9.50
2022-10-19T06:13:55.973Z,12.80
2022-10-19T06:16:24.865Z,16.60
2022-10-19T06:18:54.079Z,4.73
2022-10-19T06:21:25.258Z,10.57
2022-10-19T06:23:54.298Z,9.10
2022-10-19T06:26:23.110Z,12.87
2022-10-19T06:28:51.722Z,6.27
2022-10-19T06:31:19.726Z,9.47
2022-10-19T06:33:49.432Z,11.23
2022-10-19T06:36:19.890Z,9.60
2022-10-19T06:38:49.807Z,9.57
2022-10-19T06:41:18.520Z,10.77
2022-10-19T06:43:50.549Z,6.30
2022-10-19T06:46:20.740Z,9.97
2022-10-19T06:48:52.525Z,3.40
2022-10-19T06:51:21.103Z,8.90
2022-10-19T06:53:52.799Z,7.93
2022-10-19T06:56:25.988Z,6.47
2022-10-19T06:58:54.524Z,12.07
2022-10-19T07:01:23.088Z,6.70
2022-10-19T07:03:52.378Z,9.13
2022-10-19T07:06:21.170Z,8.23
2022-10-19T07:08:50.598Z,12.03
2022-10-19T07:11:22.309Z,4.80
2022-10-19T07:13:50.663Z,7.63
2022-10-19T07:16:21.097Z,11.33
2022-10-19T07:18:50.871Z,7.70
2022-10-19T07:21:19.579Z,7.63
2022-10-19T07:23:48.294Z,4.60
2022-10-19T07:26:21.252Z,3.40
2022-10-19T07:28:49.990Z,6.10
2022-10-19T07:31:20.259Z,5.30
2022-10-19T07:33:48.905Z,10.93
2022-10-19T07:36:16.914Z,4.90
2022-10-19T07:38:44.954Z,6.60
2022-10-19T07:41:15.223Z,5.17
2022-10-19T07:43:45.742Z,8.97
2022-10-19T07:46:15.723Z,4.70
2022-10-19T07:48:52.742Z,8.60
2022-10-19T07:51:21.214Z,5.57
2022-10-19T07:53:49.303Z,7.70
2022-10-19T07:56:19.470Z,5.70
2022-10-19T07:58:50.252Z,6.20
2022-10-19T08:01:20.858Z,5.20
2022-10-19T08:06:38.906Z,8.67
2022-10-19T08:09:51.590Z,6.83
2022-10-19T08:12:15.816Z,7.00
2022-10-19T08:14:45.263Z,4.60
2022-10-19T08:17:16.667Z,3.70
2022-10-19T08:19:45.004Z,6.30
2022-10-19T08:22:13.178Z,5.60
2022-10-19T08:25:04.403Z,9.57
2022-10-19T08:27:32.442Z,9.97
2022-10-19T08:30:01.814Z,5.70
2022-10-19T08:32:29.846Z,3.60
2022-10-19T08:35:06.058Z,4.50
2022-10-19T08:37:45.274Z,5.07
2022-10-19T08:40:19.732Z,4.93
2022-10-19T08:42:54.038Z,5.57
2022-10-19T08:45:33.547Z,5.93
2022-10-19T08:48:16.201Z,5.93
2022-10-19T08:50:45.831Z,5.23
2022-10-19T08:53:17.508Z,5.43
2022-10-19T08:55:57.764Z,7.07
2022-10-19T08:58:42.610Z,6.07
2022-10-19T09:01:17.340Z,11.10
2022-10-19T09:03:56.807Z,7.53
2022-10-19T09:06:30.113Z,5.90
2022-10-19T09:08:58.864Z,5.00
2022-10-19T09:11:30.052Z,5.77
2022-10-19T09:14:06.387Z,6.63
2022-10-19T09:16:36.020Z,10.00
2022-10-19T09:19:04.897Z,6.53
2022-10-19T09:21:47.263Z,5.77
2022-10-19T09:24:30.685Z,6.33
2022-10-19T09:27:01.109Z,7.97
2022-10-19T09:29:36.216Z,4.00
2022-10-19T09:32:13.963Z,4.17
2022-10-19T09:34:46.343Z,7.40
2022-10-19T09:37:23.294Z,4.00
2022-10-19T09:39:55.535Z,11.93
2022-10-19T09:42:29.172Z,10.60
2022-10-19T09:44:59.902Z,5.57
2022-10-19T09:47:35.329Z,6.27
2022-10-19T09:50:22.947Z,4.50
2022-10-19T09:52:52.015Z,7.57
2022-10-19T09:55:36.140Z,5.77
2022-10-19T09:58:06.941Z,7.73
2022-10-19T10:00:42.282Z,4.65
2022-10-19T10:03:24.746Z,6.00
2022-10-19T10:05:53.154Z,8.37
2022-10-19T10:08:23.818Z,5.03
2022-10-19T10:10:58.178Z,6.73
2022-10-19T10:13:28.085Z,6.70
2022-10-19T10:15:58.785Z,4.40
2022-10-19T10:18:29.782Z,3.30
2022-10-19T10:21:04.913Z,9.75
2022-10-19T10:23:39.014Z,8.00
2022-10-19T10:26:17.963Z,4.30
2022-10-19T10:28:51.382Z,9.20
2022-10-19T10:31:24.601Z,6.20
2022-10-19T10:34:10.745Z,3.70
2022-10-19T10:36:52.841Z,8.00
2022-10-19T10:39:21.187Z,5.90
2022-10-19T10:41:50.158Z,3.70
2022-10-19T10:44:21.578Z,7.37
2022-10-19T10:46:55.536Z,4.97
2022-10-19T10:49:29.040Z,8.37
2022-10-19T10:52:00.664Z,5.90
2022-10-19T10:54:31.190Z,5.17
2022-10-19T10:57:12.817Z,6.50
2022-10-19T10:59:48.348Z,8.67
2022-10-19T11:02:35.965Z,8.77
2022-10-19T11:05:12.782Z,6.80
2022-10-19T11:07:45.190Z,12.70
2022-10-19T11:10:22.213Z,4.70
2022-10-19T11:12:57.361Z,7.87
2022-10-19T11:18:12.949Z,5.03
2022-10-19T11:20:54.203Z,5.47
2022-10-19T11:23:36.148Z,8.33
2022-10-19T11:26:16.177Z,7.82
2022-10-19T11:28:57.468Z,10.60
2022-10-19T11:31:37.251Z,4.90
2022-10-19T11:34:09.143Z,7.40
2022-10-19T11:36:48.746Z,8.93
2022-10-19T11:39:31.491Z,6.43
2022-10-19T11:42:05.676Z,6.67
2022-10-19T11:44:45.763Z,11.00
2022-10-19T11:47:39.903Z,10.10
2022-10-19T11:50:22.314Z,6.47
2022-10-19T11:52:55.612Z,7.28
2022-10-19T11:55:35.467Z,10.63
2022-10-19T11:58:19.482Z,7.53
2022-10-19T12:00:57.114Z,14.73
2022-10-19T12:04:02.414Z,5.20
2022-10-19T12:06:37.000Z,13.70
2022-10-19T12:09:17.231Z,6.00
2022-10-19T12:12:20.221Z,13.80
2022-10-19T12:14:52.470Z,13.77
2022-10-19T12:17:26.648Z,5.13
2022-10-19T12:19:59.429Z,8.60
2022-10-19T12:22:30.442Z,9.33
2022-10-19T12:25:02.362Z,8.83
2022-10-19T12:27:33.810Z,8.80
2022-10-19T12:30:07.809Z,7.87
2022-10-19T12:32:44.981Z,5.13
2022-10-19T12:35:32.601Z,5.53
2022-10-19T12:38:07.524Z,4.97
2022-10-19T12:40:44.381Z,6.10
2022-10-19T12:43:17.507Z,10.77
2022-10-19T12:45:50.280Z,6.20
2022-10-19T12:48:24.574Z,6.83
2022-10-19T12:51:05.312Z,5.10
2022-10-19T12:53:38.038Z,11.43
2022-10-19T12:56:12.163Z,8.30
2022-10-19T12:58:48.046Z,6.47
2022-10-19T13:01:21.211Z,8.13
2022-10-19T13:03:52.167Z,7.88
2022-10-19T13:06:32.523Z,4.40
2022-10-19T13:09:03.710Z,5.40
2022-10-19T13:14:30.232Z,6.07
2022-10-19T13:17:00.598Z,6.60
2022-10-19T13:19:29.300Z,5.82
2022-10-19T13:22:25.658Z,6.03
2022-10-19T13:25:30.172Z,6.87
2022-10-19T13:28:02.519Z,7.40
2022-10-19T13:31:04.879Z,6.10
2022-10-19T13:33:56.211Z,7.22
2022-10-19T13:36:26.050Z,16.08
2022-10-19T13:39:28.133Z,7.32
2022-10-19T13:41:57.335Z,7.23
2022-10-19T13:44:29.400Z,4.97
2022-10-19T13:47:35.817Z,7.00
2022-10-19T13:50:32.566Z,9.47
2022-10-19T13:53:30.369Z,6.30
2022-10-19T13:56:24.038Z,4.40
2022-10-19T13:59:31.944Z,5.28
2022-10-19T14:02:29.041Z,7.13
2022-10-19T14:05:12.706Z,5.47
2022-10-19T14:07:48.433Z,7.50
2022-10-19T14:10:56.364Z,7.13
2022-10-19T14:13:31.603Z,6.20
2022-10-19T14:16:02.861Z,4.83
2022-10-19T14:18:33.790Z,7.73
2022-10-19T14:21:03.998Z,5.60
2022-10-19T14:23:34.448Z,4.93
2022-10-19T14:26:06.581Z,4.40
2022-10-19T14:28:35.009Z,8.50
2022-10-19T14:31:35.988Z,5.85
2022-10-19T14:34:08.804Z,6.07
2022-10-19T14:36:40.217Z,6.30
2022-10-19T14:39:08.313Z,5.43
2022-10-19T14:41:37.939Z,9.83
2022-10-19T14:44:33.708Z,4.93
2022-10-19T14:47:02.080Z,5.03
2022-10-19T14:49:31.486Z,9.77
2022-10-19T14:52:02.595Z,3.37
2022-10-19T14:54:36.174Z,5.87
2022-10-19T14:57:07.777Z,5.60
2022-10-19T15:02:19.717Z,7.17
2022-10-19T15:04:50.648Z,6.17
2022-10-19T15:07:22.226Z,4.70
2022-10-19T15:09:54.625Z,9.50
2022-10-19T15:12:28.408Z,4.03
2022-10-19T15:14:56.822Z,4.67
2022-10-19T15:17:27.375Z,3.73
2022-10-19T15:19:58.431Z,6.40
2022-10-19T15:22:40.386Z,3.60
2022-10-19T15:25:28.665Z,5.17
2022-10-19T15:27:57.642Z,5.37
2022-10-19T15:30:30.619Z,4.83
2022-10-19T15:33:14.293Z,3.33
2022-10-19T15:35:45.420Z,3.10
2022-10-19T15:38:21.845Z,5.60
2022-10-19T15:40:50.296Z,5.20
2022-10-19T15:43:37.602Z,6.60
2022-10-19T15:46:06.972Z,4.93
2022-10-19T15:48:50.037Z,5.13
2022-10-19T15:51:43.408Z,4.50
2022-10-19T15:54:11.824Z,3.60
2022-10-19T15:56:40.970Z,4.23
2022-10-19T15:59:13.917Z,3.87
2022-10-19T16:01:42.604Z,4.30
2022-10-19T16:04:10.880Z,6.10
2022-10-19T16:06:42.563Z,4.60
2022-10-19T16:09:18.346Z,8.07
2022-10-19T16:11:46.726Z,6.20
2022-10-19T16:14:14.877Z,6.40
2022-10-19T16:16:43.270Z,8.13
2022-10-19T16:19:12.318Z,6.17
2022-10-19T16:21:41.673Z,5.53
2022-10-19T16:24:09.721Z,8.67
2022-10-19T16:26:37.801Z,14.93
2022-10-19T16:29:05.858Z,8.07
2022-10-19T16:31:33.909Z,7.00
2022-10-19T16:34:01.941Z,6.50
2022-10-19T16:36:51.576Z,6.30
2022-10-19T16:39:19.667Z,6.30
2022-10-19T16:41:47.712Z,8.40
2022-10-19T16:44:15.861Z,7.30
2022-10-19T16:46:43.874Z,7.23
2022-10-19T16:49:12.025Z,5.60
2022-10-19T16:51:41.463Z,5.40
2022-10-19T16:54:12.478Z,9.63
2022-10-19T16:56:45.559Z,5.17
2022-10-19T16:59:15.214Z,7.60
2022-10-19T17:01:44.790Z,11.60
2022-10-19T17:04:13.125Z,17.73
2022-10-19T17:06:41.276Z,13.23
2022-10-19T17:11:58.834Z,6.47
2022-10-19T17:14:26.845Z,5.60
2022-10-19T17:16:54.852Z,7.43
2022-10-19T17:19:23.114Z,5.77
2022-10-19T17:21:51.185Z,9.00
2022-10-19T17:24:22.416Z,8.17
2022-10-19T17:26:51.284Z,6.37
2022-10-19T17:29:19.850Z,9.10
2022-10-19T17:31:48.600Z,6.97
2022-10-19T17:34:17.749Z,7.80
2022-10-19T17:36:46.924Z,7.47
2022-10-19T17:39:18.094Z,7.20
2022-10-19T17:41:48.687Z,7.30
2022-10-19T17:44:17.803Z,6.40
2022-10-19T17:46:46.169Z,5.63
2022-10-19T17:49:14.973Z,6.93
2022-10-19T17:51:43.025Z,7.37
2022-10-19T17:54:13.868Z,11.63
2022-10-19T17:56:44.874Z,6.80
2022-10-19T17:59:14.396Z,6.73
2022-10-19T18:01:42.670Z,7.57
2022-10-19T18:04:10.640Z,8.23
2022-10-19T18:06:39.381Z,7.17
2022-10-19T18:09:09.950Z,6.60
2022-10-19T18:11:40.822Z,10.10
2022-10-19T18:14:10.428Z,7.60
2022-10-19T18:16:41.762Z,10.20
2022-10-19T18:19:10.254Z,8.37
2022-10-19T18:21:40.635Z,10.53
2022-10-19T18:24:14.369Z,15.10
2022-10-19T18:26:44.111Z,7.60
2022-10-19T18:29:13.836Z,7.37
2022-10-19T18:31:43.230Z,5.50
2022-10-19T18:34:15.448Z,7.50
2022-10-19T18:36:43.981Z,8.30
2022-10-19T18:39:14.298Z,7.13
2022-10-19T18:41:42.969Z,7.80
2022-10-19T18:44:13.562Z,9.10
2022-10-19T18:46:44.446Z,8.97
2022-10-19T18:49:13.441Z,7.73
2022-10-19T18:51:41.483Z,5.93
2022-10-19T18:54:09.601Z,6.63
2022-10-19T18:56:37.650Z,8.07
2022-10-19T18:59:06.641Z,10.20
2022-10-19T19:01:35.007Z,12.10
2022-10-19T19:04:10.002Z,6.40
2022-10-19T19:06:39.309Z,7.53
2022-10-19T19:09:09.690Z,5.77
2022-10-19T19:11:40.857Z,7.57
2022-10-19T19:14:12.836Z,7.10
2022-10-19T19:16:41.889Z,10.03
2022-10-19T19:19:13.422Z,8.10
2022-10-19T19:21:44.075Z,7.17
2022-10-19T19:24:14.377Z,7.40
2022-10-19T19:26:44.572Z,11.97
2022-10-19T19:29:12.633Z,11.10
2022-10-19T19:31:40.729Z,10.00
2022-10-19T19:34:09.410Z,8.00
2022-10-19T19:39:15.153Z,5.90
2022-10-19T19:41:43.380Z,4.43
2022-10-19T19:44:11.424Z,9.10
2022-10-19T19:46:39.432Z,16.23
2022-10-19T19:49:07.756Z,12.30
2022-10-19T19:51:36.041Z,9.50
2022-10-19T19:54:06.132Z,7.47
2022-10-19T19:56:34.299Z,8.20
2022-10-19T19:59:04.317Z,6.50
2022-10-19T20:01:33.315Z,5.90
2022-10-19T20:06:37.002Z,7.27
2022-10-19T20:09:07.323Z,7.70
2022-10-19T20:11:39.644Z,10.70
2022-10-19T20:14:10.040Z,9.83
2022-10-19T20:16:38.327Z,7.80
2022-10-19T20:19:08.979Z,8.30
2022-10-19T20:21:37.667Z,13.07
2022-10-19T20:24:07.727Z,7.03
2022-10-19T20:26:35.807Z,7.30
2022-10-19T20:29:04.964Z,8.83
2022-10-19T20:31:39.103Z,5.70
2022-10-19T20:34:13.521Z,11.03
2022-10-19T20:36:41.759Z,7.33
2022-10-19T20:39:11.299Z,5.47
2022-10-19T20:41:39.427Z,5.80
2022-10-19T20:44:07.468Z,5.70
2022-10-19T20:46:36.937Z,5.13
2022-10-19T20:49:07.246Z,6.50
2022-10-19T20:51:37.112Z,7.50
2022-10-19T20:54:08.138Z,8.63
2022-10-19T20:56:39.543Z,5.17
2022-10-19T20:59:11.646Z,5.90
2022-10-19T21:01:41.287Z,7.73
2022-10-19T21:04:12.673Z,8.43
2022-10-19T21:06:42.851Z,4.70
2022-10-19T21:09:12.331Z,4.80
2022-10-19T21:11:43.209Z,10.13
2022-10-19T21:14:14.524Z,5.80
2022-10-19T21:16:43.218Z,3.83
2022-10-19T21:19:13.606Z,7.77
2022-10-19T21:21:43.764Z,8.90
2022-10-19T21:24:13.925Z,6.87
2022-10-19T21:26:44.077Z,6.63
2022-10-19T21:29:13.293Z,7.00
2022-10-19T21:31:45.105Z,6.00
2022-10-19T21:34:17.325Z,6.00
2022-10-19T21:36:45.696Z,10.90
2022-10-19T21:39:13.723Z,5.93
2022-10-19T21:41:43.074Z,5.30
2022-10-19T21:44:11.236Z,6.87
2022-10-19T21:46:39.256Z,4.17
2022-10-19T21:49:07.228Z,8.97
2022-10-19T21:51:38.097Z,7.30
2022-10-19T21:54:07.525Z,9.57
2022-10-19T21:56:36.081Z,6.47
2022-10-19T21:59:05.581Z,4.93
2022-10-19T22:01:38.502Z,8.57
2022-10-19T22:04:12.690Z,7.27
2022-10-19T22:06:41.104Z,6.10
2022-10-19T22:09:11.089Z,5.33
2022-10-19T22:11:39.219Z,14.63
2022-10-19T22:14:08.666Z,3.90
2022-10-19T22:16:37.038Z,6.80
2022-10-19T22:19:06.480Z,5.40
2022-10-19T22:24:09.321Z,22.67
2022-10-19T22:26:40.120Z,8.60
2022-10-19T22:29:09.506Z,4.50
2022-10-19T22:31:38.552Z,5.00
2022-10-19T22:34:09.166Z,3.00
2022-10-19T22:36:37.859Z,5.70
2022-10-19T22:39:05.953Z,4.17
2022-10-19T22:41:33.991Z,7.70
2022-10-19T22:44:02.164Z,8.47
2022-10-19T22:46:31.816Z,4.70
2022-10-19T22:48:59.847Z,6.53
2022-10-19T22:51:27.945Z,6.23
2022-10-19T22:53:56.040Z,7.20
2022-10-19T22:56:24.080Z,5.40
2022-10-19T22:58:52.070Z,6.77
2022-10-19T23:01:20.616Z,8.00
2022-10-19T23:03:50.228Z,5.03
2022-10-19T23:06:18.803Z,5.53
2022-10-19T23:08:46.950Z,3.50
2022-10-19T23:11:15.976Z,5.10
2022-10-19T23:13:44.133Z,6.33
2022-10-19T23:16:12.553Z,5.03
2022-10-19T23:18:41.959Z,2.80
2022-10-19T23:21:14.446Z,3.07
2022-10-19T23:23:51.308Z,5.60
2022-10-19T23:26:21.054Z,5.80
2022-10-19T23:28:50.655Z,3.70
2022-10-19T23:31:20.864Z,3.97
2022-10-19T23:33:48.879Z,4.87
2022-10-19T23:36:20.045Z,6.23
2022-10-19T23:38:49.539Z,6.80
2022-10-19T23:41:18.437Z,8.90
2022-10-19T23:43:46.882Z,7.80
2022-10-19T23:46:15.170Z,7.07
2022-10-19T23:48:43.242Z,4.07
2022-10-19T23:51:12.938Z,4.03
2022-10-19T23:53:44.116Z,7.27
2022-10-19T23:56:13.870Z,7.57
2022-10-19T23:58:41.971Z,6.40
